sensor_id;sensor_type;location;lat;lon;timestamp;pressure;altitude;pressure_sealevel;temperature;humidity
47809;BME280;33573;38.790;-77.084;2022-07-23T00:01:42;101101.59;;;30.99;26.21
47809;BME280;33573;38.790;-77.084;2022-07-23T00:04:10;101104.13;;;30.90;26.30
47809;BME280;33573;38.790;-77.084;2022-07-23T00:06:38;101100.77;;;31.21;26.27
47809;BME280;33573;38.790;-77.084;2022-07-23T00:09:06;101105.07;;;30.93;26.42
47809;BME280;33573;38.790;-77.084;2022-07-23T00:11:34;101104.04;;;30.95;26.45
47809;BME280;33573;38.790;-77.084;2022-07-23T00:14:02;101102.02;;;31.09;26.54
47809;BME280;33573;38.790;-77.084;2022-07-23T00:16:30;101105.61;;;30.69;26.54
47809;BME280;33573;38.790;-77.084;2022-07-23T00:18:58;101108.82;;;30.74;26.56
47809;BME280;33573;38.790;-77.084;2022-07-23T00:21:26;101109.83;;;31.09;26.40
47809;BME280;33573;38.790;-77.084;2022-07-23T00:23:54;101108.77;;;31.09;26.26
47809;BME280;33573;38.790;-77.084;2022-07-23T00:26:22;101114.71;;;31.36;26.04
47809;BME280;33573;38.790;-77.084;2022-07-23T00:28:50;101115.27;;;31.29;26.02
47809;BME280;33573;38.790;-77.084;2022-07-23T00:31:19;101111.26;;;31.25;26.06
47809;BME280;33573;38.790;-77.084;2022-07-23T00:33:47;101117.84;;;31.09;26.14
47809;BME280;33573;38.790;-77.084;2022-07-23T00:36:15;101123.59;;;31.12;26.12
47809;BME280;33573;38.790;-77.084;2022-07-23T00:38:43;101124.18;;;31.15;26.14
47809;BME280;33573;38.790;-77.084;2022-07-23T00:41:11;101123.72;;;30.98;26.23
47809;BME280;33573;38.790;-77.084;2022-07-23T00:43:39;101125.63;;;31.17;26.28
47809;BME280;33573;38.790;-77.084;2022-07-23T00:46:07;101128.31;;;31.60;26.25
47809;BME280;33573;38.790;-77.084;2022-07-23T00:48:35;101128.29;;;31.36;26.19
47809;BME280;33573;38.790;-77.084;2022-07-23T00:51:03;101129.04;;;31.36;26.00
47809;BME280;33573;38.790;-77.084;2022-07-23T00:53:31;101127.80;;;31.23;25.98
47809;BME280;33573;38.790;-77.084;2022-07-23T00:55:59;101132.36;;;31.13;26.10
47809;BME280;33573;38.790;-77.084;2022-07-23T00:58:27;101137.03;;;30.88;26.23
47809;BME280;33573;38.790;-77.084;2022-07-23T01:00:55;101140.39;;;31.05;26.35
47809;BME280;33573;38.790;-77.084;2022-07-23T01:03:23;101141.46;;;31.36;26.36
47809;BME280;33573;38.790;-77.084;2022-07-23T01:05:51;101142.39;;;30.76;26.47
47809;BME280;33573;38.790;-77.084;2022-07-23T01:08:19;101141.92;;;30.92;26.54
47809;BME280;33573;38.790;-77.084;2022-07-23T01:10:47;101139.44;;;31.08;26.51
47809;BME280;33573;38.790;-77.084;2022-07-23T01:13:15;101144.23;;;31.21;26.32
47809;BME280;33573;38.790;-77.084;2022-07-23T01:15:43;101147.03;;;31.24;26.21
47809;BME280;33573;38.790;-77.084;2022-07-23T01:18:11;101147.12;;;31.21;26.15
47809;BME280;33573;38.790;-77.084;2022-07-23T01:20:39;101146.58;;;31.08;26.08
47809;BME280;33573;38.790;-77.084;2022-07-23T01:23:07;101145.90;;;31.09;26.22
47809;BME280;33573;38.790;-77.084;2022-07-23T01:25:35;101151.52;;;30.84;26.32
47809;BME280;33573;38.790;-77.084;2022-07-23T01:28:03;101152.49;;;30.89;26.34
47809;BME280;33573;38.790;-77.084;2022-07-23T01:30:31;101156.36;;;31.29;26.36
47809;BME280;33573;38.790;-77.084;2022-07-23T01:32:59;101157.86;;;30.75;26.46
47809;BME280;33573;38.790;-77.084;2022-07-23T01:35:27;101157.96;;;31.05;26.48
47809;BME280;33573;38.790;-77.084;2022-07-23T01:37:55;101156.69;;;30.95;26.65
47809;BME280;33573;38.790;-77.084;2022-07-23T01:40:23;101158.03;;;30.85;26.49
47809;BME280;33573;38.790;-77.084;2022-07-23T01:42:51;101159.57;;;30.95;26.26
47809;BME280;33573;38.790;-77.084;2022-07-23T01:45:19;101159.52;;;31.27;25.99
47809;BME280;33573;38.790;-77.084;2022-07-23T01:47:48;101160.21;;;31.01;25.99
47809;BME280;33573;38.790;-77.084;2022-07-23T01:50:15;101167.04;;;31.11;26.13
47809;BME280;33573;38.790;-77.084;2022-07-23T01:52:43;101167.76;;;31.00;26.11
47809;BME280;33573;38.790;-77.084;2022-07-23T01:55:11;101173.34;;;30.87;26.21
47809;BME280;33573;38.790;-77.084;2022-07-23T01:57:39;101178.35;;;30.88;26.27
47809;BME280;33573;38.790;-77.084;2022-07-23T02:00:08;101180.15;;;31.14;26.28
47809;BME280;33573;38.790;-77.084;2022-07-23T02:02:36;101180.13;;;30.73;26.42
47809;BME280;33573;38.790;-77.084;2022-07-23T02:05:05;101181.79;;;30.75;26.45
47809;BME280;33573;38.790;-77.084;2022-07-23T02:07:33;101182.83;;;30.69;26.51
47809;BME280;33573;38.790;-77.084;2022-07-23T02:10:01;101183.04;;;30.66;26.59
47809;BME280;33573;38.790;-77.084;2022-07-23T02:12:29;101188.40;;;30.89;26.45
47809;BME280;33573;38.790;-77.084;2022-07-23T02:14:57;101190.68;;;31.19;26.15
47809;BME280;33573;38.790;-77.084;2022-07-23T02:17:25;101195.06;;;31.15;25.97
47809;BME280;33573;38.790;-77.084;2022-07-23T02:19:53;101195.63;;;30.90;26.06
47809;BME280;33573;38.790;-77.084;2022-07-23T02:22:21;101198.73;;;31.04;26.12
47809;BME280;33573;38.790;-77.084;2022-07-23T02:24:49;101200.87;;;31.44;25.92
47809;BME280;33573;38.790;-77.084;2022-07-23T02:27:17;101202.36;;;31.42;25.72
47809;BME280;33573;38.790;-77.084;2022-07-23T02:29:45;101203.09;;;31.62;25.48
47809;BME280;33573;38.790;-77.084;2022-07-23T02:32:13;101203.98;;;31.61;25.16
47809;BME280;33573;38.790;-77.084;2022-07-23T02:34:41;101206.59;;;31.62;25.00
47809;BME280;33573;38.790;-77.084;2022-07-23T02:37:09;101207.37;;;31.58;24.86
47809;BME280;33573;38.790;-77.084;2022-07-23T02:39:37;101204.48;;;31.64;24.62
47809;BME280;33573;38.790;-77.084;2022-07-23T02:42:05;101203.02;;;31.44;24.47
47809;BME280;33573;38.790;-77.084;2022-07-23T02:44:33;101206.78;;;31.56;24.30
47809;BME280;33573;38.790;-77.084;2022-07-23T02:47:01;101210.12;;;31.83;24.15
47809;BME280;33573;38.790;-77.084;2022-07-23T02:49:29;101209.83;;;31.68;24.07
47809;BME280;33573;38.790;-77.084;2022-07-23T02:51:57;101212.26;;;31.61;24.08
47809;BME280;33573;38.790;-77.084;2022-07-23T02:54:25;101207.78;;;31.46;24.15
47809;BME280;33573;38.790;-77.084;2022-07-23T02:56:53;101207.67;;;31.51;24.23
47809;BME280;33573;38.790;-77.084;2022-07-23T02:59:21;101207.06;;;31.54;24.16
47809;BME280;33573;38.790;-77.084;2022-07-23T03:01:50;101202.88;;;31.53;24.08
47809;BME280;33573;38.790;-77.084;2022-07-23T03:04:17;101201.92;;;31.65;23.89
47809;BME280;33573;38.790;-77.084;2022-07-23T03:06:45;101206.84;;;31.50;23.83
47809;BME280;33573;38.790;-77.084;2022-07-23T03:09:14;101209.98;;;31.44;23.68
47809;BME280;33573;38.790;-77.084;2022-07-23T03:11:41;101211.58;;;31.34;23.65
47809;BME280;33573;38.790;-77.084;2022-07-23T03:14:09;101212.45;;;31.01;23.69
47809;BME280;33573;38.790;-77.084;2022-07-23T03:16:37;101214.01;;;31.02;23.75
47809;BME280;33573;38.790;-77.084;2022-07-23T03:19:05;101219.33;;;31.23;23.85
47809;BME280;33573;38.790;-77.084;2022-07-23T03:21:33;101220.19;;;31.38;23.87
47809;BME280;33573;38.790;-77.084;2022-07-23T03:24:02;101226.72;;;31.63;23.73
47809;BME280;33573;38.790;-77.084;2022-07-23T03:26:29;101226.65;;;31.54;23.63
47809;BME280;33573;38.790;-77.084;2022-07-23T03:28:57;101224.98;;;31.32;23.55
47809;BME280;33573;38.790;-77.084;2022-07-23T03:31:26;101227.03;;;31.30;23.45
47809;BME280;33573;38.790;-77.084;2022-07-23T03:33:54;101227.83;;;31.35;23.45
47809;BME280;33573;38.790;-77.084;2022-07-23T03:36:22;101230.39;;;31.20;23.57
47809;BME280;33573;38.790;-77.084;2022-07-23T03:38:50;101229.00;;;31.25;23.64
47809;BME280;33573;38.790;-77.084;2022-07-23T03:41:18;101233.48;;;31.26;23.68
47809;BME280;33573;38.790;-77.084;2022-07-23T03:43:46;101232.37;;;31.07;23.70
47809;BME280;33573;38.790;-77.084;2022-07-23T03:46:14;101235.47;;;31.22;23.59
47809;BME280;33573;38.790;-77.084;2022-07-23T03:48:42;101241.58;;;31.14;23.49
47809;BME280;33573;38.790;-77.084;2022-07-23T03:51:10;101244.79;;;31.11;23.38
47809;BME280;33573;38.790;-77.084;2022-07-23T03:53:38;101247.17;;;30.91;23.41
47809;BME280;33573;38.790;-77.084;2022-07-23T03:56:06;101247.14;;;31.05;23.47
47809;BME280;33573;38.790;-77.084;2022-07-23T03:58:34;101245.84;;;30.87;23.60
47809;BME280;33573;38.790;-77.084;2022-07-23T04:01:02;101251.12;;;30.91;23.63
47809;BME280;33573;38.790;-77.084;2022-07-23T04:03:30;101249.15;;;31.08;23.60
47809;BME280;33573;38.790;-77.084;2022-07-23T04:05:58;101247.01;;;31.13;23.40
47809;BME280;33573;38.790;-77.084;2022-07-23T04:08:26;101251.29;;;31.21;23.31
47809;BME280;33573;38.790;-77.084;2022-07-23T04:10:54;101249.53;;;31.02;23.28
47809;BME280;33573;38.790;-77.084;2022-07-23T04:13:22;101248.90;;;30.99;23.30
47809;BME280;33573;38.790;-77.084;2022-07-23T04:15:50;101247.81;;;30.95;23.46
47809;BME280;33573;38.790;-77.084;2022-07-23T04:18:18;101249.81;;;31.15;23.54
47809;BME280;33573;38.790;-77.084;2022-07-23T04:20:46;101250.27;;;30.92;23.53
47809;BME280;33573;38.790;-77.084;2022-07-23T04:23:14;101251.06;;;30.95;23.50
47809;BME280;33573;38.790;-77.084;2022-07-23T04:25:42;101253.94;;;30.93;23.40
47809;BME280;33573;38.790;-77.084;2022-07-23T04:28:10;101258.07;;;30.88;23.31
47809;BME280;33573;38.790;-77.084;2022-07-23T04:30:38;101257.92;;;30.86;23.25
47809;BME280;33573;38.790;-77.084;2022-07-23T04:33:06;101257.53;;;30.74;23.29
47809;BME280;33573;38.790;-77.084;2022-07-23T04:35:35;101255.67;;;30.95;23.30
47809;BME280;33573;38.790;-77.084;2022-07-23T04:38:03;101255.55;;;30.59;23.36
47809;BME280;33573;38.790;-77.084;2022-07-23T04:40:31;101254.73;;;30.85;23.39
47809;BME280;33573;38.790;-77.084;2022-07-23T04:42:59;101255.37;;;30.66;23.37
47809;BME280;33573;38.790;-77.084;2022-07-23T04:45:27;101257.85;;;30.83;23.25
47809;BME280;33573;38.790;-77.084;2022-07-23T04:47:55;101256.99;;;30.71;23.16
47809;BME280;33573;38.790;-77.084;2022-07-23T04:50:23;101256.48;;;30.82;23.15
47809;BME280;33573;38.790;-77.084;2022-07-23T04:52:51;101260.81;;;30.82;23.13
47809;BME280;33573;38.790;-77.084;2022-07-23T04:55:19;101262.01;;;30.75;23.22
47809;BME280;33573;38.790;-77.084;2022-07-23T04:57:47;101262.19;;;30.97;23.30
47809;BME280;33573;38.790;-77.084;2022-07-23T05:00:16;101264.46;;;30.69;23.37
47809;BME280;33573;38.790;-77.084;2022-07-23T05:02:43;101266.79;;;30.67;23.43
47809;BME280;33573;38.790;-77.084;2022-07-23T05:05:11;101267.71;;;30.71;23.46
47809;BME280;33573;38.790;-77.084;2022-07-23T05:07:39;101266.76;;;30.57;23.40
47809;BME280;33573;38.790;-77.084;2022-07-23T05:10:08;101268.24;;;30.78;23.29
47809;BME280;33573;38.790;-77.084;2022-07-23T05:12:35;101270.23;;;30.70;23.21
47809;BME280;33573;38.790;-77.084;2022-07-23T05:15:04;101270.41;;;30.64;23.27
47809;BME280;33573;38.790;-77.084;2022-07-23T05:17:31;101267.96;;;30.66;23.32
47809;BME280;33573;38.790;-77.084;2022-07-23T05:19:59;101269.57;;;30.60;23.42
47809;BME280;33573;38.790;-77.084;2022-07-23T05:22:28;101270.46;;;30.62;23.43
47809;BME280;33573;38.790;-77.084;2022-07-23T05:24:55;101266.04;;;30.56;23.49
47809;BME280;33573;38.790;-77.084;2022-07-23T05:27:24;101271.40;;;30.91;23.51
47809;BME280;33573;38.790;-77.084;2022-07-23T05:29:52;101272.60;;;30.73;23.50
47809;BME280;33573;38.790;-77.084;2022-07-23T05:32:19;101270.54;;;30.74;23.44
47809;BME280;33573;38.790;-77.084;2022-07-23T05:34:47;101269.94;;;30.85;23.32
47809;BME280;33573;38.790;-77.084;2022-07-23T05:37:15;101269.64;;;30.69;23.31
47809;BME280;33573;38.790;-77.084;2022-07-23T05:39:43;101266.79;;;30.83;23.29
47809;BME280;33573;38.790;-77.084;2022-07-23T05:42:11;101264.65;;;30.80;23.37
47809;BME280;33573;38.790;-77.084;2022-07-23T05:44:39;101269.08;;;30.89;23.42
47809;BME280;33573;38.790;-77.084;2022-07-23T05:47:07;101269.65;;;30.54;23.50
47809;BME280;33573;38.790;-77.084;2022-07-23T05:49:37;101275.28;;;30.50;23.58
47809;BME280;33573;38.790;-77.084;2022-07-23T05:52:06;101280.02;;;30.72;23.63
47809;BME280;33573;38.790;-77.084;2022-07-23T05:54:34;101280.30;;;30.43;23.70
47809;BME280;33573;38.790;-77.084;2022-07-23T05:57:02;101281.23;;;30.44;23.73
47809;BME280;33573;38.790;-77.084;2022-07-23T05:59:30;101286.10;;;30.61;23.80
47809;BME280;33573;38.790;-77.084;2022-07-23T06:01:58;101285.16;;;30.61;23.73
47809;BME280;33573;38.790;-77.084;2022-07-23T06:04:26;101289.02;;;30.61;23.77
47809;BME280;33573;38.790;-77.084;2022-07-23T06:06:54;101289.82;;;30.59;23.77
47809;BME280;33573;38.790;-77.084;2022-07-23T06:09:22;101290.94;;;30.79;23.71
47809;BME280;33573;38.790;-77.084;2022-07-23T06:11:50;101289.79;;;30.69;23.66
47809;BME280;33573;38.790;-77.084;2022-07-23T06:14:18;101291.59;;;30.79;23.53
47809;BME280;33573;38.790;-77.084;2022-07-23T06:16:46;101292.52;;;30.70;23.53
47809;BME280;33573;38.790;-77.084;2022-07-23T06:19:14;101290.22;;;30.68;23.56
47809;BME280;33573;38.790;-77.084;2022-07-23T06:21:42;101288.15;;;30.80;23.62
47809;BME280;33573;38.790;-77.084;2022-07-23T06:24:10;101283.92;;;30.54;23.69
47809;BME280;33573;38.790;-77.084;2022-07-23T06:26:38;101279.95;;;30.48;23.73
47809;BME280;33573;38.790;-77.084;2022-07-23T06:29:06;101281.25;;;30.67;23.81
47809;BME280;33573;38.790;-77.084;2022-07-23T06:31:35;101281.94;;;30.35;23.82
47809;BME280;33573;38.790;-77.084;2022-07-23T06:34:02;101284.66;;;30.49;23.85
47809;BME280;33573;38.790;-77.084;2022-07-23T06:36:30;101286.91;;;30.73;23.86
47809;BME280;33573;38.790;-77.084;2022-07-23T06:38:59;101289.18;;;30.34;23.94
47809;BME280;33573;38.790;-77.084;2022-07-23T06:41:27;101284.63;;;30.75;23.93
47809;BME280;33573;38.790;-77.084;2022-07-23T06:43:54;101282.35;;;30.47;23.97
47809;BME280;33573;38.790;-77.084;2022-07-23T06:46:23;101283.75;;;30.78;23.94
47809;BME280;33573;38.790;-77.084;2022-07-23T06:48:51;101284.47;;;30.51;23.96
47809;BME280;33573;38.790;-77.084;2022-07-23T06:51:19;101286.06;;;30.49;24.00
47809;BME280;33573;38.790;-77.084;2022-07-23T06:53:47;101286.29;;;30.48;24.04
47809;BME280;33573;38.790;-77.084;2022-07-23T06:56:15;101285.76;;;30.45;24.06
47809;BME280;33573;38.790;-77.084;2022-07-23T06:58:43;101285.51;;;30.54;24.07
47809;BME280;33573;38.790;-77.084;2022-07-23T07:01:11;101285.59;;;30.51;24.08
47809;BME280;33573;38.790;-77.084;2022-07-23T07:03:39;101288.44;;;30.46;24.12
47809;BME280;33573;38.790;-77.084;2022-07-23T07:06:07;101291.43;;;30.80;24.16
47809;BME280;33573;38.790;-77.084;2022-07-23T07:08:35;101294.93;;;30.93;24.09
47809;BME280;33573;38.790;-77.084;2022-07-23T07:11:03;101293.78;;;30.42;24.21
47809;BME280;33573;38.790;-77.084;2022-07-23T07:13:31;101295.35;;;30.58;24.17
47809;BME280;33573;38.790;-77.084;2022-07-23T07:15:59;101300.68;;;30.92;24.15
47809;BME280;33573;38.790;-77.084;2022-07-23T07:18:27;101300.53;;;30.69;24.15
47809;BME280;33573;38.790;-77.084;2022-07-23T07:20:55;101302.47;;;30.60;24.19
47809;BME280;33573;38.790;-77.084;2022-07-23T07:23:24;101304.72;;;30.87;24.22
47809;BME280;33573;38.790;-77.084;2022-07-23T07:25:52;101308.05;;;30.69;24.22
47809;BME280;33573;38.790;-77.084;2022-07-23T07:28:20;101311.37;;;30.64;24.26
47809;BME280;33573;38.790;-77.084;2022-07-23T07:30:48;101307.98;;;30.69;24.24
47809;BME280;33573;38.790;-77.084;2022-07-23T07:33:16;101312.36;;;30.60;24.31
47809;BME280;33573;38.790;-77.084;2022-07-23T07:35:44;101310.06;;;30.60;24.34
47809;BME280;33573;38.790;-77.084;2022-07-23T07:38:12;101310.69;;;30.57;24.38
47809;BME280;33573;38.790;-77.084;2022-07-23T07:40:40;101313.28;;;30.52;24.42
47809;BME280;33573;38.790;-77.084;2022-07-23T07:43:08;101312.82;;;30.67;24.38
47809;BME280;33573;38.790;-77.084;2022-07-23T07:45:36;101310.47;;;30.69;24.37
47809;BME280;33573;38.790;-77.084;2022-07-23T07:48:04;101308.00;;;30.96;24.37
47809;BME280;33573;38.790;-77.084;2022-07-23T07:50:32;101309.12;;;30.95;24.40
47809;BME280;33573;38.790;-77.084;2022-07-23T07:53:00;101314.26;;;30.68;24.41
47809;BME280;33573;38.790;-77.084;2022-07-23T07:55:28;101316.17;;;30.59;24.44
47809;BME280;33573;38.790;-77.084;2022-07-23T07:57:56;101320.02;;;30.59;24.48
47809;BME280;33573;38.790;-77.084;2022-07-23T08:00:24;101319.80;;;30.62;24.49
47809;BME280;33573;38.790;-77.084;2022-07-23T08:02:53;101327.29;;;30.58;24.50
47809;BME280;33573;38.790;-77.084;2022-07-23T08:05:22;101327.97;;;31.17;24.49
47809;BME280;33573;38.790;-77.084;2022-07-23T08:07:51;101332.95;;;30.79;24.56
47809;BME280;33573;38.790;-77.084;2022-07-23T08:10:19;101335.01;;;30.69;24.57
47809;BME280;33573;38.790;-77.084;2022-07-23T08:12:48;101332.71;;;30.70;24.53
47809;BME280;33573;38.790;-77.084;2022-07-23T08:15:18;101335.85;;;30.59;24.56
47809;BME280;33573;38.790;-77.084;2022-07-23T08:17:47;101339.59;;;30.82;24.60
47809;BME280;33573;38.790;-77.084;2022-07-23T08:20:17;101341.18;;;30.58;24.59
47809;BME280;33573;38.790;-77.084;2022-07-23T08:22:47;101345.17;;;30.64;24.59
47809;BME280;33573;38.790;-77.084;2022-07-23T08:25:19;101348.59;;;30.59;24.61
47809;BME280;33573;38.790;-77.084;2022-07-23T08:27:48;101352.57;;;30.65;24.60
47809;BME280;33573;38.790;-77.084;2022-07-23T08:30:16;101353.57;;;30.94;24.60
47809;BME280;33573;38.790;-77.084;2022-07-23T08:32:50;101355.31;;;30.92;24.62
47809;BME280;33573;38.790;-77.084;2022-07-23T08:35:21;101355.10;;;30.68;24.64
47809;BME280;33573;38.790;-77.084;2022-07-23T08:37:49;101352.43;;;30.44;24.74
47809;BME280;33573;38.790;-77.084;2022-07-23T08:40:18;101352.34;;;30.48;24.75
47809;BME280;33573;38.790;-77.084;2022-07-23T08:42:48;101357.11;;;30.85;24.72
47809;BME280;33573;38.790;-77.084;2022-07-23T08:45:18;101358.75;;;30.83;24.74
47809;BME280;33573;38.790;-77.084;2022-07-23T08:47:50;101359.31;;;30.56;24.75
47809;BME280;33573;38.790;-77.084;2022-07-23T08:50:18;101358.23;;;30.59;24.73
47809;BME280;33573;38.790;-77.084;2022-07-23T08:52:47;101360.15;;;30.55;24.75
47809;BME280;33573;38.790;-77.084;2022-07-23T08:55:16;101359.34;;;30.59;24.76
47809;BME280;33573;38.790;-77.084;2022-07-23T08:57:44;101356.08;;;30.50;24.80
47809;BME280;33573;38.790;-77.084;2022-07-23T09:00:14;101354.34;;;30.52;24.83
47809;BME280;33573;38.790;-77.084;2022-07-23T09:02:44;101354.34;;;30.58;24.81
47809;BME280;33573;38.790;-77.084;2022-07-23T09:05:13;101354.39;;;30.79;24.86
47809;BME280;33573;38.790;-77.084;2022-07-23T09:08:05;101352.03;;;30.61;24.82
47809;BME280;33573;38.790;-77.084;2022-07-23T09:10:44;101353.98;;;30.77;24.76
47809;BME280;33573;38.790;-77.084;2022-07-23T09:13:31;101353.30;;;30.62;24.83
47809;BME280;33573;38.790;-77.084;2022-07-23T09:16:02;101351.25;;;30.53;24.90
47809;BME280;33573;38.790;-77.084;2022-07-23T09:18:35;101354.07;;;30.64;24.85
47809;BME280;33573;38.790;-77.084;2022-07-23T09:21:10;101358.06;;;30.84;24.88
47809;BME280;33573;38.790;-77.084;2022-07-23T09:23:40;101359.12;;;30.57;24.93
47809;BME280;33573;38.790;-77.084;2022-07-23T09:26:29;101360.44;;;30.89;24.92
47809;BME280;33573;38.790;-77.084;2022-07-23T09:28:59;101363.39;;;30.64;24.92
47809;BME280;33573;38.790;-77.084;2022-07-23T09:31:32;101363.13;;;30.64;24.94
47809;BME280;33573;38.790;-77.084;2022-07-23T09:34:11;101363.17;;;30.63;24.93
47809;BME280;33573;38.790;-77.084;2022-07-23T09:36:40;101365.91;;;30.68;24.96
47809;BME280;33573;38.790;-77.084;2022-07-23T09:39:09;101368.65;;;30.66;24.96
47809;BME280;33573;38.790;-77.084;2022-07-23T09:41:40;101371.16;;;30.70;24.94
47809;BME280;33573;38.790;-77.084;2022-07-23T09:44:11;101375.48;;;30.94;24.78
47809;BME280;33573;38.790;-77.084;2022-07-23T09:46:39;101380.04;;;30.53;24.78
47809;BME280;33573;38.790;-77.084;2022-07-23T09:49:17;101386.58;;;30.53;24.78
47809;BME280;33573;38.790;-77.084;2022-07-23T09:51:48;101391.34;;;30.86;24.75
47809;BME280;33573;38.790;-77.084;2022-07-23T09:54:24;101396.33;;;30.64;24.74
47809;BME280;33573;38.790;-77.084;2022-07-23T09:56:53;101397.54;;;30.82;24.76
47809;BME280;33573;38.790;-77.084;2022-07-23T09:59:24;101398.29;;;30.50;24.81
47809;BME280;33573;38.790;-77.084;2022-07-23T10:01:53;101398.26;;;30.67;24.83
47809;BME280;33573;38.790;-77.084;2022-07-23T10:04:22;101402.44;;;30.53;24.81
47809;BME280;33573;38.790;-77.084;2022-07-23T10:06:53;101404.28;;;30.73;24.85
47809;BME280;33573;38.790;-77.084;2022-07-23T10:09:25;101407.60;;;30.80;24.83
47809;BME280;33573;38.790;-77.084;2022-07-23T10:11:56;101407.72;;;30.73;24.84
47809;BME280;33573;38.790;-77.084;2022-07-23T10:14:23;101409.82;;;30.49;24.84
47809;BME280;33573;38.790;-77.084;2022-07-23T10:16:52;101411.40;;;30.60;24.81
47809;BME280;33573;38.790;-77.084;2022-07-23T10:19:20;101413.53;;;30.56;24.84
47809;BME280;33573;38.790;-77.084;2022-07-23T10:21:52;101417.58;;;30.77;24.85
47809;BME280;33573;38.790;-77.084;2022-07-23T10:24:30;101422.87;;;30.55;24.86
47809;BME280;33573;38.790;-77.084;2022-07-23T10:27:17;101426.76;;;30.43;24.94
47809;BME280;33573;38.790;-77.084;2022-07-23T10:29:51;101430.80;;;30.37;25.02
47809;BME280;33573;38.790;-77.084;2022-07-23T10:32:35;101430.34;;;30.45;25.00
47809;BME280;33573;38.790;-77.084;2022-07-23T10:35:13;101430.65;;;30.45;25.02
47809;BME280;33573;38.790;-77.084;2022-07-23T10:37:47;101431.62;;;30.55;25.00
47809;BME280;33573;38.790;-77.084;2022-07-23T10:40:18;101433.77;;;30.77;25.02
47809;BME280;33573;38.790;-77.084;2022-07-23T10:42:47;101439.33;;;31.01;25.03
47809;BME280;33573;38.790;-77.084;2022-07-23T10:45:25;101445.74;;;30.45;25.07
47809;BME280;33573;38.790;-77.084;2022-07-23T10:47:53;101450.95;;;30.55;25.04
47809;BME280;33573;38.790;-77.084;2022-07-23T10:50:24;101451.91;;;30.50;25.09
47809;BME280;33573;38.790;-77.084;2022-07-23T10:53:24;101453.14;;;30.40;25.13
47809;BME280;33573;38.790;-77.084;2022-07-23T10:55:52;101458.65;;;30.45;25.16
47809;BME280;33573;38.790;-77.084;2022-07-23T10:58:22;101461.96;;;30.71;25.16
47809;BME280;33573;38.790;-77.084;2022-07-23T11:00:50;101461.54;;;30.41;25.19
47809;BME280;33573;38.790;-77.084;2022-07-23T11:03:34;101458.59;;;30.67;25.22
47809;BME280;33573;38.790;-77.084;2022-07-23T11:06:04;101458.30;;;30.71;25.22
47809;BME280;33573;38.790;-77.084;2022-07-23T11:08:32;101460.88;;;30.75;25.21
47809;BME280;33573;38.790;-77.084;2022-07-23T11:11:15;101460.58;;;30.33;25.27
47809;BME280;33573;38.790;-77.084;2022-07-23T11:13:48;101461.82;;;30.35;25.31
47809;BME280;33573;38.790;-77.084;2022-07-23T11:16:21;101460.65;;;30.65;25.29
47809;BME280;33573;38.790;-77.084;2022-07-23T11:19:06;101463.46;;;30.70;25.29
47809;BME280;33573;38.790;-77.084;2022-07-23T11:21:42;101465.20;;;30.40;25.30
47809;BME280;33573;38.790;-77.084;2022-07-23T11:24:11;101467.14;;;30.50;25.29
47809;BME280;33573;38.790;-77.084;2022-07-23T11:26:51;101468.31;;;30.56;25.26
47809;BME280;33573;38.790;-77.084;2022-07-23T11:29:52;101466.97;;;30.80;25.28
47809;BME280;33573;38.790;-77.084;2022-07-23T11:32:36;101469.39;;;30.53;25.29
47809;BME280;33573;38.790;-77.084;2022-07-23T11:35:20;101477.49;;;30.53;25.29
47809;BME280;33573;38.790;-77.084;2022-07-23T11:37:48;101482.54;;;30.46;25.31
47809;BME280;33573;38.790;-77.084;2022-07-23T11:40:17;101485.48;;;30.68;25.36
47809;BME280;33573;38.790;-77.084;2022-07-23T11:42:54;101483.16;;;30.44;25.36
47809;BME280;33573;38.790;-77.084;2022-07-23T11:45:23;101480.54;;;30.82;25.34
47809;BME280;33573;38.790;-77.084;2022-07-23T11:47:51;101483.72;;;30.52;25.35
47809;BME280;33573;38.790;-77.084;2022-07-23T11:50:22;101485.45;;;30.60;25.45
47809;BME280;33573;38.790;-77.084;2022-07-23T11:52:51;101480.00;;;30.44;25.44
47809;BME280;33573;38.790;-77.084;2022-07-23T11:55:19;101479.98;;;30.54;25.40
47809;BME280;33573;38.790;-77.084;2022-07-23T11:57:47;101474.81;;;30.50;25.41
47809;BME280;33573;38.790;-77.084;2022-07-23T12:00:17;101474.41;;;30.40;25.44
47809;BME280;33573;38.790;-77.084;2022-07-23T12:02:47;101471.02;;;30.49;25.42
47809;BME280;33573;38.790;-77.084;2022-07-23T12:05:17;101470.74;;;30.80;25.42
47809;BME280;33573;38.790;-77.084;2022-07-23T12:07:47;101471.25;;;30.44;25.46
47809;BME280;33573;38.790;-77.084;2022-07-23T12:10:17;101472.24;;;30.65;25.49
47809;BME280;33573;38.790;-77.084;2022-07-23T12:12:46;101472.17;;;30.39;25.54
47809;BME280;33573;38.790;-77.084;2022-07-23T12:15:17;101470.35;;;30.68;25.52
47809;BME280;33573;38.790;-77.084;2022-07-23T12:17:47;101467.78;;;30.77;25.48
47809;BME280;33573;38.790;-77.084;2022-07-23T12:20:17;101470.67;;;30.44;25.48
47809;BME280;33573;38.790;-77.084;2022-07-23T12:22:47;101470.17;;;30.45;25.51
47809;BME280;33573;38.790;-77.084;2022-07-23T12:25:18;101468.29;;;30.53;25.48
47809;BME280;33573;38.790;-77.084;2022-07-23T12:27:58;101470.89;;;30.58;25.44
47809;BME280;33573;38.790;-77.084;2022-07-23T12:30:28;101470.11;;;30.53;25.47
47809;BME280;33573;38.790;-77.084;2022-07-23T12:32:58;101470.10;;;30.48;25.50
47809;BME280;33573;38.790;-77.084;2022-07-23T12:35:34;101470.68;;;30.49;25.54
47809;BME280;33573;38.790;-77.084;2022-07-23T12:38:04;101473.92;;;30.81;25.55
47809;BME280;33573;38.790;-77.084;2022-07-23T12:40:35;101475.57;;;30.54;25.57
47809;BME280;33573;38.790;-77.084;2022-07-23T12:43:06;101477.09;;;30.63;25.57